Time;durP1;ratioP1;P1;durP2;ratioP2;P2;SDS_P1;SDS_P2;PMS_P1;PMS_P2;Temp;Humidity;BMP_temperature;BMP_pressure;BME280_temperature;BME280_humidity;BME280_pressure;Samples;Min_cycle;Max_cycle;Signal;HPM_P1;HPM_P2
2022/05/21 00:00:11;;;;;;;65.18;38.85;;;28.40;99.90;;;;;;5032655;28;20069;-64
2022/05/21 00:02:38;;;;;;;46.88;33.90;;;28.40;99.90;;;;;;5038757;28;20029;-64
2022/05/21 00:05:06;;;;;;;67.88;45.20;;;28.40;99.90;;;;;;5038715;28;20036;-64
2022/05/21 00:07:32;;;;;;;70.75;49.20;;;28.40;99.90;;;;;;5037968;28;20367;-65
2022/05/21 00:09:59;;;;;;;75.43;44.45;;;28.40;99.90;;;;;;5038547;28;20381;-65
2022/05/21 00:12:26;;;;;;;61.67;39.72;;;28.50;99.90;;;;;;5032259;28;20048;-64
2022/05/21 00:14:53;;;;;;;61.22;41.22;;;28.50;99.90;;;;;;5038775;28;20389;-65
2022/05/21 00:17:21;;;;;;;59.75;39.38;;;28.50;99.90;;;;;;5034901;28;20056;-63
2022/05/21 00:19:47;;;;;;;61.33;41.42;;;28.60;99.90;;;;;;5031803;28;20025;-64
2022/05/21 00:22:14;;;;;;;60.75;40.35;;;28.70;99.90;;;;;;5034658;28;20037;-64
2022/05/21 00:24:41;;;;;;;60.28;36.60;;;28.70;99.90;;;;;;5034234;28;20101;-64
2022/05/21 00:27:08;;;;;;;52.08;35.67;;;28.70;99.90;;;;;;5025758;28;20025;-65
2022/05/21 00:29:35;;;;;;;47.58;31.13;;;28.70;99.90;;;;;;5027349;28;20021;-64
2022/05/21 00:32:04;;;;;;;39.03;28.35;;;28.80;99.90;;;;;;5034962;28;20087;-65
2022/05/21 00:34:34;;;;;;;42.70;28.35;;;28.90;99.90;;;;;;5022620;28;20045;-65
2022/05/21 00:37:02;;;;;;;50.45;31.77;;;28.80;99.90;;;;;;5034539;28;20398;-64
2022/05/21 00:39:29;;;;;;;39.85;28.50;;;28.80;99.90;;;;;;5023689;28;20030;-63
2022/05/21 00:41:56;;;;;;;41.50;30.58;;;28.90;99.90;;;;;;5033618;28;20394;-63
2022/05/21 00:44:22;;;;;;;64.75;31.23;;;28.90;99.90;;;;;;5025208;28;20038;-64
2022/05/21 00:46:49;;;;;;;39.70;27.55;;;28.90;99.90;;;;;;5035127;28;20420;-65
2022/05/21 00:49:21;;;;;;;40.47;26.23;;;28.90;99.90;;;;;;5034569;28;20017;-65
2022/05/21 00:52:00;;;;;;;880.30;663.08;;;29.00;99.90;;;;;;5034620;28;20044;-65
2022/05/21 00:54:32;;;;;;;1999.90;999.90;;;29.00;99.90;;;;;;5030392;28;20110;-65
2022/05/21 00:57:04;;;;;;;111.03;78.65;;;29.20;99.90;;;;;;5034689;28;20466;-65
2022/05/21 01:02:08;;;;;;;923.92;643.70;;;29.30;99.90;;;;;;5033737;28;20021;-65
2022/05/21 01:04:37;;;;;;;120.88;75.85;;;29.40;99.90;;;;;;5024479;28;20037;-66
2022/05/21 01:07:06;;;;;;;500.50;356.75;;;29.40;99.90;;;;;;5025853;28;20068;-64
2022/05/21 01:09:34;;;;;;;310.67;197.75;;;29.50;99.90;;;;;;5037055;28;20461;-64
2022/05/21 01:12:03;;;;;;;546.35;421.02;;;29.50;99.90;;;;;;5037480;28;20030;-65
2022/05/21 01:14:30;;;;;;;625.33;516.03;;;29.60;99.90;;;;;;5028410;28;20036;-64
2022/05/21 01:16:59;;;;;;;182.68;142.57;;;29.60;99.90;;;;;;5042753;28;20064;-65
2022/05/21 01:19:26;;;;;;;41.55;32.97;;;29.60;99.90;;;;;;5037291;28;20061;-66
2022/05/21 01:21:52;;;;;;;24.77;19.65;;;29.50;99.90;;;;;;5034244;28;20075;-65
2022/05/21 01:24:19;;;;;;;200.88;151.32;;;29.50;99.90;;;;;;5034056;28;20022;-67
2022/05/21 01:26:46;;;;;;;47.28;34.47;;;29.50;99.90;;;;;;5034257;28;20030;-66
2022/05/21 01:29:25;;;;;;;117.07;80.28;;;29.50;99.90;;;;;;5030917;28;20078;-66
2022/05/21 01:31:53;;;;;;;254.40;168.10;;;29.50;99.90;;;;;;5029217;28;20025;-66
2022/05/21 01:34:21;;;;;;;297.48;211.25;;;29.50;99.90;;;;;;5034709;28;20476;-66
2022/05/21 01:36:48;;;;;;;276.98;194.07;;;29.50;99.90;;;;;;5034743;28;20116;-65
2022/05/21 01:39:15;;;;;;;136.25;84.30;;;29.60;99.90;;;;;;5033877;28;20037;-64
2022/05/21 01:41:43;;;;;;;270.10;148.73;;;29.70;99.90;;;;;;5033884;28;20030;-64
2022/05/21 01:46:57;;;;;;;275.13;157.52;;;29.70;99.90;;;;;;5023641;28;20057;-64
2022/05/21 01:49:23;;;;;;;209.48;124.03;;;29.70;99.90;;;;;;5031934;28;20021;-64
2022/05/21 01:51:50;;;;;;;296.33;164.88;;;29.70;99.90;;;;;;5034177;28;20022;-64
2022/05/21 01:54:17;;;;;;;86.75;48.38;;;29.70;99.90;;;;;;5034163;28;20378;-63
2022/05/21 01:56:43;;;;;;;274.98;163.20;;;29.80;99.90;;;;;;5034375;28;20040;-63
2022/05/21 01:59:10;;;;;;;178.10;107.03;;;29.80;99.90;;;;;;5034069;28;20037;-64
2022/05/21 02:01:37;;;;;;;42.88;27.38;;;29.90;99.90;;;;;;5033242;28;20033;-66
2022/05/21 02:04:03;;;;;;;41.33;24.38;;;29.90;99.90;;;;;;5022197;28;20374;-66
2022/05/21 02:06:30;;;;;;;58.40;36.00;;;29.90;99.90;;;;;;5033214;28;20100;-65
2022/05/21 02:08:59;;;;;;;28.70;20.73;;;29.90;99.90;;;;;;5031838;28;20398;-64
2022/05/21 02:11:26;;;;;;;36.47;19.63;;;29.90;99.90;;;;;;5033626;28;20029;-65
2022/05/21 02:13:54;;;;;;;31.75;16.95;;;29.90;99.90;;;;;;5029014;28;20021;-65
2022/05/21 02:16:21;;;;;;;53.67;30.42;;;29.90;99.90;;;;;;5031103;28;20032;-64
2022/05/21 02:18:47;;;;;;;32.08;17.55;;;29.90;99.90;;;;;;5033546;28;20056;-65
2022/05/21 02:21:14;;;;;;;44.45;24.05;;;29.80;99.90;;;;;;5030825;28;20025;-65
2022/05/21 02:23:41;;;;;;;110.53;62.47;;;29.80;99.90;;;;;;5032473;28;20100;-66
2022/05/21 02:26:07;;;;;;;28.30;17.10;;;29.80;99.90;;;;;;5033538;28;20017;-65
2022/05/21 02:28:35;;;;;;;31.77;19.08;;;29.80;99.90;;;;;;5030711;28;20088;-65
2022/05/21 02:31:01;;;;;;;35.25;21.98;;;29.80;99.90;;;;;;5033383;28;20112;-65
2022/05/21 02:33:28;;;;;;;69.82;40.38;;;29.80;99.90;;;;;;5024410;28;20049;-66
2022/05/21 02:35:55;;;;;;;47.85;24.15;;;29.90;99.90;;;;;;5032991;28;20021;-65
2022/05/21 02:41:13;;;;;;;88.97;46.65;;;29.90;99.90;;;;;;5032344;28;20049;-64
2022/05/21 02:43:40;;;;;;;34.13;19.23;;;30.00;99.90;;;;;;5030692;28;20013;-65
2022/05/21 02:46:07;;;;;;;45.85;24.63;;;30.00;99.90;;;;;;5033086;28;20036;-64
2022/05/21 02:48:34;;;;;;;62.40;34.22;;;30.00;99.90;;;;;;5032338;28;20071;-65
2022/05/21 02:51:01;;;;;;;44.20;24.98;;;30.00;99.90;;;;;;5030798;28;20076;-64
2022/05/21 02:53:27;;;;;;;39.03;22.27;;;30.10;99.90;;;;;;5032516;28;20429;-64
2022/05/21 02:55:55;;;;;;;36.05;20.27;;;30.10;99.90;;;;;;5032628;28;20018;-64
2022/05/21 02:58:23;;;;;;;30.20;18.35;;;30.10;99.90;;;;;;5033072;28;20104;-64
2022/05/21 03:00:49;;;;;;;37.38;21.75;;;30.10;99.90;;;;;;5029785;28;20030;-63
2022/05/21 03:03:16;;;;;;;28.08;17.73;;;30.20;99.90;;;;;;5030119;28;20053;-64
2022/05/21 03:05:43;;;;;;;31.73;16.58;;;30.30;99.90;;;;;;5032526;28;20021;-65
2022/05/21 03:10:57;;;;;;;24.27;13.10;;;30.30;99.90;;;;;;5030437;28;20025;-66
2022/05/21 03:13:25;;;;;;;26.60;14.57;;;30.40;99.90;;;;;;5029669;28;20029;-63
2022/05/21 03:15:52;;;;;;;22.50;14.65;;;30.50;99.90;;;;;;5032473;28;20022;-63
2022/05/21 03:18:20;;;;;;;28.95;19.10;;;30.70;99.90;;;;;;5032775;28;20025;-63
2022/05/21 03:20:46;;;;;;;121.97;51.97;;;30.80;99.90;;;;;;5022359;28;20037;-64
2022/05/21 03:23:13;;;;;;;23.67;13.98;;;30.80;99.90;;;;;;5029167;28;20033;-65
2022/05/21 03:25:41;;;;;;;67.63;32.58;;;31.00;99.90;;;;;;5030863;28;20079;-66
2022/05/21 03:28:08;;;;;;;27.58;17.50;;;31.00;99.90;;;;;;5031268;28;20029;-67
2022/05/21 03:30:35;;;;;;;34.85;14.73;;;31.20;99.90;;;;;;5031923;28;20022;-66
2022/05/21 03:33:02;;;;;;;159.73;81.10;;;31.30;99.90;;;;;;5032669;28;20521;-67
2022/05/21 03:35:28;;;;;;;167.82;92.47;;;31.30;99.90;;;;;;5028954;28;20112;-66
2022/05/21 03:37:56;;;;;;;43.03;24.70;;;31.30;99.90;;;;;;5021827;28;20040;-65
2022/05/21 03:40:27;;;;;;;52.78;32.45;;;31.30;99.90;;;;;;5032111;28;20021;-63
2022/05/21 03:42:54;;;;;;;56.90;34.50;;;31.50;99.90;;;;;;5021672;28;20390;-64
2022/05/21 03:45:21;;;;;;;44.95;28.38;;;31.60;99.90;;;;;;5031904;28;20343;-64
2022/05/21 03:47:48;;;;;;;79.00;46.92;;;31.80;99.90;;;;;;5022983;28;20072;-64
2022/05/21 03:50:20;;;;;;;21.60;12.95;;;32.00;99.90;;;;;;5023783;28;20026;-64
2022/05/21 03:52:46;;;;;;;20.48;12.48;;;32.00;99.90;;;;;;5026806;28;20037;-64
2022/05/21 03:55:13;;;;;;;87.18;58.47;;;32.00;99.90;;;;;;5035188;28;20094;-65
2022/05/21 03:57:40;;;;;;;46.95;26.65;;;32.10;99.90;;;;;;5026810;28;20032;-65
2022/05/21 04:00:10;;;;;;;33.65;18.90;;;32.20;99.90;;;;;;5026642;28;20022;-64
2022/05/21 04:02:37;;;;;;;25.60;15.93;;;32.20;99.90;;;;;;5035011;28;20074;-65
2022/05/21 04:05:06;;;;;;;21.13;13.52;;;32.30;99.90;;;;;;5036184;28;20087;-65
2022/05/21 04:07:33;;;;;;;25.65;13.13;;;32.40;99.30;;;;;;5019471;28;20044;-65
2022/05/21 04:10:00;;;;;;;18.83;11.77;;;32.40;99.30;;;;;;5029127;28;20474;-66
2022/05/21 04:12:27;;;;;;;17.98;12.05;;;32.40;99.20;;;;;;5035227;28;20029;-64
2022/05/21 04:14:53;;;;;;;13.43;12.00;;;32.30;99.80;;;;;;5034845;28;20045;-64
2022/05/21 04:17:20;;;;;;;20.98;12.43;;;32.30;99.60;;;;;;5036256;28;20025;-65
2022/05/21 04:19:47;;;;;;;17.30;12.65;;;32.40;98.60;;;;;;5028887;28;20049;-65
2022/05/21 04:22:13;;;;;;;28.23;14.48;;;32.40;98.40;;;;;;5032097;28;20117;-64
2022/05/21 04:24:40;;;;;;;17.10;12.80;;;32.40;98.30;;;;;;5035742;28;20009;-64
2022/05/21 04:27:07;;;;;;;32.60;17.75;;;32.30;98.60;;;;;;5025875;28;20032;-64
2022/05/21 04:29:36;;;;;;;27.63;14.40;;;32.20;98.80;;;;;;5033766;28;20048;-64
2022/05/21 04:32:03;;;;;;;20.83;13.07;;;32.20;98.30;;;;;;5025815;28;20314;-63
2022/05/21 04:34:30;;;;;;;22.00;13.25;;;32.20;98.70;;;;;;5035244;28;20055;-64
2022/05/21 04:36:57;;;;;;;26.10;13.13;;;32.20;98.30;;;;;;5035171;28;20037;-64
2022/05/21 04:39:23;;;;;;;24.30;11.63;;;32.30;97.80;;;;;;5032869;28;20033;-64
2022/05/21 04:41:50;;;;;;;23.48;13.02;;;32.20;97.20;;;;;;5034453;28;20026;-64
2022/05/21 04:44:16;;;;;;;20.85;11.63;;;32.10;97.20;;;;;;5034558;28;20017;-65
2022/05/21 04:46:43;;;;;;;22.45;11.27;;;32.00;95.70;;;;;;5032345;28;20032;-65
2022/05/21 04:49:10;;;;;;;18.40;10.02;;;32.00;97.10;;;;;;5033275;28;20402;-64
2022/05/21 04:51:39;;;;;;;26.65;11.73;;;31.60;97.40;;;;;;5024691;28;20037;-63
2022/05/21 04:54:06;;;;;;;30.90;13.00;;;31.20;98.20;;;;;;5033751;28;20040;-64
2022/05/21 04:56:34;;;;;;;19.30;11.13;;;31.00;99.00;;;;;;5034564;28;20021;-63
2022/05/21 04:59:01;;;;;;;23.23;9.52;;;30.80;99.50;;;;;;5028146;28;20239;-63
2022/05/21 05:01:30;;;;;;;23.20;11.15;;;30.70;99.60;;;;;;5033537;28;20101;-62
2022/05/21 05:03:57;;;;;;;15.20;9.90;;;30.40;99.90;;;;;;5031776;28;20310;-62
2022/05/21 05:06:24;;;;;;;17.00;10.88;;;30.30;99.90;;;;;;5033831;28;20026;-63
2022/05/21 05:08:51;;;;;;;33.50;13.98;;;30.10;99.90;;;;;;5031143;28;20064;-64
2022/05/21 05:11:18;;;;;;;49.85;31.63;;;30.00;99.90;;;;;;5034357;28;20022;-65
2022/05/21 05:13:44;;;;;;;23.30;14.63;;;29.90;99.90;;;;;;5031355;28;20033;-62
2022/05/21 05:16:11;;;;;;;26.33;14.80;;;29.90;99.90;;;;;;5030194;28;20032;-63
2022/05/21 05:18:38;;;;;;;18.52;13.82;;;29.90;99.90;;;;;;5033372;28;20022;-62
2022/05/21 05:21:05;;;;;;;24.33;14.18;;;29.90;99.90;;;;;;5028016;28;20022;-62
2022/05/21 05:23:31;;;;;;;20.08;15.15;;;30.00;99.90;;;;;;5030764;28;20116;-62
2022/05/21 05:25:59;;;;;;;22.48;12.70;;;30.00;99.90;;;;;;5032420;28;20026;-62
2022/05/21 05:28:27;;;;;;;30.38;15.85;;;30.10;99.90;;;;;;5032735;28;20489;-62
2022/05/21 05:30:54;;;;;;;24.63;14.93;;;30.30;99.90;;;;;;5034241;28;20034;-63
2022/05/21 05:33:22;;;;;;;44.63;26.75;;;30.30;99.90;;;;;;5034398;28;20049;-63
2022/05/21 05:35:52;;;;;;;43.08;22.30;;;30.30;99.90;;;;;;5031317;28;20037;-63
2022/05/21 05:38:20;;;;;;;26.85;17.48;;;30.30;99.90;;;;;;5033393;28;20100;-63
2022/05/21 05:40:50;;;;;;;22.00;16.45;;;30.30;99.90;;;;;;5024020;28;20036;-63
2022/05/21 05:43:18;;;;;;;19.50;13.27;;;30.30;99.90;;;;;;5029731;28;20029;-63
2022/05/21 05:45:45;;;;;;;20.10;13.88;;;30.40;99.90;;;;;;5032645;28;20470;-64
2022/05/21 05:48:12;;;;;;;20.17;14.57;;;30.40;99.90;;;;;;5034033;28;20030;-63
2022/05/21 05:50:39;;;;;;;20.25;12.20;;;30.40;99.90;;;;;;5033665;28;20462;-63
2022/05/21 05:53:07;;;;;;;21.48;12.98;;;30.30;99.90;;;;;;5033461;28;20470;-64
2022/05/21 05:55:36;;;;;;;22.85;16.23;;;30.30;99.90;;;;;;5023151;28;20296;-64
2022/05/21 05:59:48;;;;;;;23.23;17.48;;;30.40;99.90;;;;;;5031285;28;20025;-63
2022/05/21 06:00:49;;;;;;;22.73;15.45;;;30.40;99.90;;;;;;5033172;28;20535;-61
2022/05/21 06:03:16;;;;;;;20.65;15.20;;;30.30;99.90;;;;;;5024072;28;20469;-62
2022/05/21 06:05:42;;;;;;;29.67;17.55;;;30.20;99.90;;;;;;5029406;28;20026;-62
2022/05/21 06:08:09;;;;;;;23.73;14.98;;;30.00;99.90;;;;;;5028455;28;20093;-62
2022/05/21 06:10:38;;;;;;;25.58;15.88;;;29.80;99.90;;;;;;5032775;28;20020;-62
2022/05/21 06:13:06;;;;;;;15.23;11.35;;;29.60;99.90;;;;;;5033333;28;20033;-62
2022/05/21 06:15:35;;;;;;;16.60;10.07;;;29.60;99.90;;;;;;5024298;28;20364;-62
2022/05/21 06:18:22;;;;;;;14.93;10.93;;;29.50;99.90;;;;;;5031950;28;20032;-63
2022/05/21 06:20:49;;;;;;;15.35;10.40;;;29.60;99.90;;;;;;5031168;28;20036;-63
2022/05/21 06:23:16;;;;;;;14.00;10.43;;;29.70;99.90;;;;;;5032822;28;20029;-63
2022/05/21 06:25:43;;;;;;;17.20;10.60;;;29.70;99.90;;;;;;5032116;28;20025;-64
2022/05/21 06:28:10;;;;;;;19.05;12.63;;;29.70;99.90;;;;;;5032715;28;20017;-64
2022/05/21 06:30:38;;;;;;;24.67;17.25;;;29.60;99.90;;;;;;5025952;28;20025;-63
2022/05/21 06:33:23;;;;;;;21.92;16.20;;;29.50;99.90;;;;;;5032994;28;20121;-62
2022/05/21 06:36:01;;;;;;;20.50;16.33;;;29.60;99.90;;;;;;5031879;28;20528;-63
2022/05/21 06:38:27;;;;;;;25.90;15.27;;;29.70;99.90;;;;;;5032204;28;20068;-64
2022/05/21 06:40:54;;;;;;;23.00;14.35;;;29.60;99.90;;;;;;5028265;28;20029;-62
2022/05/21 06:43:22;;;;;;;24.02;16.15;;;29.50;99.90;;;;;;5032905;28;20028;-63
2022/05/21 06:45:49;;;;;;;29.42;17.30;;;29.60;99.90;;;;;;5025522;28;20032;-63
2022/05/21 06:48:15;;;;;;;26.52;16.33;;;29.60;99.90;;;;;;5033447;28;20029;-63
2022/05/21 06:50:42;;;;;;;23.33;15.95;;;29.60;99.90;;;;;;5017188;28;20497;-64
2022/05/21 06:53:09;;;;;;;30.00;16.10;;;29.60;99.90;;;;;;5013921;28;20293;-63
2022/05/21 06:55:37;;;;;;;27.90;16.33;;;29.70;99.90;;;;;;5019284;28;20037;-63
2022/05/21 06:58:04;;;;;;;28.83;18.40;;;29.80;99.90;;;;;;5032879;28;20056;-64
2022/05/21 07:00:31;;;;;;;26.75;17.65;;;29.90;99.90;;;;;;5033217;28;20037;-69
2022/05/21 07:02:57;;;;;;;31.08;18.13;;;29.90;99.90;;;;;;5032537;28;20382;-69
2022/05/21 07:08:24;;;;;;;25.08;15.68;;;30.00;99.90;;;;;;5033234;28;20182;-69
2022/05/21 07:10:52;;;;;;;20.88;14.05;;;30.00;99.90;;;;;;5033134;28;20028;-70
2022/05/21 07:13:20;;;;;;;31.52;17.35;;;30.00;99.90;;;;;;5025568;28;20021;-69
2022/05/21 07:15:49;;;;;;;37.42;23.45;;;30.00;99.90;;;;;;5030368;28;20155;-69
2022/05/21 07:18:18;;;;;;;26.35;16.38;;;30.00;99.90;;;;;;5032757;28;20041;-64
2022/05/21 07:20:45;;;;;;;45.25;25.67;;;30.00;99.90;;;;;;5033371;28;20033;-62
2022/05/21 07:23:12;;;;;;;27.98;14.68;;;30.10;99.90;;;;;;5031568;28;20409;-61
2022/05/21 07:25:40;;;;;;;22.45;12.05;;;30.10;99.90;;;;;;5033661;28;20531;-62
2022/05/21 07:28:08;;;;;;;26.77;18.98;;;30.00;99.90;;;;;;5037191;28;20060;-61
2022/05/21 07:30:36;;;;;;;24.20;16.80;;;30.10;99.90;;;;;;5037028;28;20037;-61
2022/05/21 07:33:04;;;;;;;27.52;18.15;;;30.20;99.90;;;;;;5036941;28;20111;-61
2022/05/21 07:35:31;;;;;;;69.03;49.03;;;30.20;99.90;;;;;;5036716;28;20033;-61
2022/05/21 07:37:57;;;;;;;32.40;21.55;;;30.30;99.90;;;;;;5037066;28;20038;-61
2022/05/21 07:40:25;;;;;;;31.85;20.50;;;30.30;99.90;;;;;;5036326;28;20033;-62
2022/05/21 07:42:52;;;;;;;33.42;20.92;;;30.30;99.90;;;;;;5036802;28;20038;-61
2022/05/21 07:45:20;;;;;;;28.33;17.23;;;30.30;99.90;;;;;;5036563;28;20382;-62
2022/05/21 07:47:49;;;;;;;29.40;17.77;;;30.30;99.90;;;;;;5035717;28;20034;-61
2022/05/21 07:50:16;;;;;;;41.42;26.85;;;30.40;99.90;;;;;;5035748;28;20034;-61
2022/05/21 07:52:44;;;;;;;58.47;23.75;;;30.40;99.90;;;;;;5035710;28;20040;-60
2022/05/21 07:55:11;;;;;;;46.55;22.58;;;30.50;99.90;;;;;;5036801;28;20029;-61
2022/05/21 07:57:38;;;;;;;45.08;20.17;;;30.50;99.90;;;;;;5036023;28;20057;-61
2022/05/21 08:00:07;;;;;;;48.17;22.48;;;30.50;99.90;;;;;;5036138;28;20497;-61
2022/05/21 08:02:33;;;;;;;32.65;22.40;;;30.60;99.90;;;;;;5036357;28;20034;-62
2022/05/21 08:05:00;;;;;;;40.28;23.05;;;30.60;99.90;;;;;;5036576;28;20028;-61
2022/05/21 08:07:27;;;;;;;39.95;23.52;;;30.70;99.90;;;;;;5036172;28;20101;-60
2022/05/21 08:09:53;;;;;;;43.60;25.73;;;30.70;99.90;;;;;;5035940;28;20021;-60
2022/05/21 08:12:20;;;;;;;34.30;24.98;;;30.70;99.90;;;;;;5036223;28;20032;-61
2022/05/21 08:14:47;;;;;;;43.17;27.00;;;30.80;99.90;;;;;;5032163;28;20033;-61
2022/05/21 08:17:13;;;;;;;43.58;28.92;;;30.70;99.90;;;;;;5034227;28;20513;-61
2022/05/21 08:19:41;;;;;;;57.45;35.38;;;30.70;99.90;;;;;;5036088;28;20033;-61
2022/05/21 08:27:42;;;;;;;42.25;28.50;;;30.70;99.90;;;;;;5034731;28;20075;-64
2022/05/21 08:30:10;;;;;;;40.92;30.33;;;30.70;99.90;;;;;;5035941;28;20060;-62
2022/05/21 08:32:37;;;;;;;35.83;25.65;;;30.70;99.90;;;;;;5035833;28;20025;-62
2022/05/21 08:35:04;;;;;;;38.72;25.67;;;30.70;99.90;;;;;;5035435;28;20124;-61
2022/05/21 08:37:33;;;;;;;35.42;24.85;;;30.70;99.90;;;;;;5032898;28;20152;-62
2022/05/21 08:40:00;;;;;;;37.78;24.48;;;30.70;99.90;;;;;;5032603;28;20033;-63
2022/05/21 08:42:43;;;;;;;41.13;27.48;;;30.70;99.90;;;;;;5034948;28;20034;-63
2022/05/21 08:45:21;;;;;;;93.50;56.90;;;30.70;99.90;;;;;;5024433;28;20023;-64
2022/05/21 08:48:10;;;;;;;84.82;41.40;;;30.70;99.90;;;;;;5034507;28;20040;-63
2022/05/21 08:50:44;;;;;;;64.85;33.10;;;30.70;99.90;;;;;;5032106;28;20029;-63
2022/05/21 08:53:17;;;;;;;69.93;34.22;;;30.70;99.90;;;;;;5034816;28;20024;-63
2022/05/21 08:55:48;;;;;;;77.05;41.15;;;30.60;99.90;;;;;;5035195;28;20026;-63
2022/05/21 08:58:46;;;;;;;63.28;36.63;;;30.60;99.90;;;;;;5035253;28;20033;-63
2022/05/21 09:01:17;;;;;;;69.55;38.20;;;30.50;99.90;;;;;;5029725;28;20030;-63
2022/05/21 09:03:44;;;;;;;65.22;39.38;;;30.40;99.90;;;;;;5024149;28;20041;-62
2022/05/21 09:06:21;;;;;;;72.13;45.38;;;30.30;99.90;;;;;;5029846;28;20073;-62
2022/05/21 09:08:55;;;;;;;72.15;42.20;;;30.30;99.90;;;;;;5027983;28;20030;-63
2022/05/21 09:11:24;;;;;;;64.47;39.58;;;30.30;99.90;;;;;;5033121;28;20026;-63
2022/05/21 09:14:01;;;;;;;65.88;40.05;;;30.30;99.90;;;;;;5027108;28;20029;-64
2022/05/21 09:19:23;;;;;;;70.10;42.67;;;30.20;99.90;;;;;;5032750;28;20021;-63
2022/05/21 09:21:56;;;;;;;67.00;40.03;;;30.10;99.90;;;;;;5033442;28;20489;-64
2022/05/21 09:24:35;;;;;;;59.75;37.78;;;30.00;99.90;;;;;;5026973;28;20030;-63
2022/05/21 09:27:04;;;;;;;52.85;33.78;;;30.00;99.90;;;;;;5017215;28;20022;-63
2022/05/21 09:29:35;;;;;;;52.38;30.85;;;30.00;99.90;;;;;;5031422;28;20459;-65
2022/05/21 09:32:23;;;;;;;58.80;39.47;;;29.90;99.90;;;;;;5030408;28;20562;-63
2022/05/21 09:35:12;;;;;;;47.03;30.67;;;29.70;99.90;;;;;;5028823;28;20410;-64
2022/05/21 09:37:39;;;;;;;31.15;22.50;;;29.50;99.90;;;;;;5028814;28;20022;-65
2022/05/21 09:40:36;;;;;;;31.95;22.63;;;29.40;99.90;;;;;;5034379;28;20060;-63
2022/05/21 09:46:31;;;;;;;28.33;19.02;;;29.10;99.90;;;;;;4955911;29;20035;-63
2022/05/21 09:49:29;;;;;;;25.80;14.73;;;29.10;99.90;;;;;;4952347;28;20055;-64
2022/05/21 09:52:00;;;;;;;29.55;17.88;;;29.20;99.90;;;;;;4953966;28;20031;-63
2022/05/21 09:54:40;;;;;;;38.80;23.10;;;29.10;99.90;;;;;;4954354;29;20152;-63
2022/05/21 09:57:20;;;;;;;21.10;12.90;;;29.00;99.90;;;;;;4952209;28;20043;-62
2022/05/21 10:00:28;;;;;;;31.67;17.83;;;29.00;99.90;;;;;;4950029;29;20070;-62
2022/05/21 10:03:00;;;;;;;39.08;19.83;;;28.90;99.90;;;;;;4870551;29;20052;-62
2022/05/21 10:05:29;;;;;;;28.45;16.02;;;28.90;99.90;;;;;;4875371;29;20033;-62
2022/05/21 10:11:07;;;;;;;25.70;14.32;;;28.80;99.90;;;;;;4876653;29;20033;-63
2022/05/21 10:13:36;;;;;;;24.15;15.40;;;28.70;99.90;;;;;;4877456;29;20029;-64
2022/05/21 10:16:11;;;;;;;24.50;15.73;;;28.60;99.90;;;;;;4902913;29;20093;-65
2022/05/21 10:18:46;;;;;;;21.10;12.70;;;28.60;99.90;;;;;;4953263;29;20035;-63
2022/05/21 10:21:38;;;;;;;18.70;12.55;;;28.60;99.90;;;;;;4934555;29;20170;-64
2022/05/21 10:24:17;;;;;;;19.63;11.63;;;28.60;99.90;;;;;;4934833;29;20115;-63
2022/05/21 10:27:19;;;;;;;19.40;13.82;;;28.50;99.90;;;;;;4934535;29;20043;-63
2022/05/21 10:30:13;;;;;;;25.92;14.23;;;28.60;99.90;;;;;;4948683;29;20039;-63
2022/05/21 10:32:40;;;;;;;32.00;18.15;;;28.60;99.90;;;;;;4886207;29;20029;-64
2022/05/21 10:35:28;;;;;;;30.23;17.75;;;28.60;99.90;;;;;;4885467;29;20498;-64
2022/05/21 10:37:54;;;;;;;42.10;25.45;;;28.70;99.90;;;;;;4885313;29;20040;-66
2022/05/21 10:40:32;;;;;;;42.95;25.83;;;28.70;99.90;;;;;;4885001;29;20041;-65
2022/05/21 10:43:14;;;;;;;35.60;19.60;;;28.60;99.90;;;;;;4884457;29;20276;-64
2022/05/21 10:45:50;;;;;;;25.15;18.20;;;28.60;99.90;;;;;;4885177;29;20047;-63
2022/05/21 10:48:25;;;;;;;30.20;20.13;;;28.60;99.90;;;;;;4885152;29;20137;-64
2022/05/21 10:51:06;;;;;;;38.88;24.75;;;28.60;99.90;;;;;;4883974;29;20032;-63
2022/05/21 10:53:43;;;;;;;34.90;25.70;;;28.60;99.90;;;;;;4937791;29;20043;-63
2022/05/21 10:56:36;;;;;;;32.95;23.05;;;28.60;99.90;;;;;;4947813;29;20573;-63
2022/05/21 10:59:25;;;;;;;38.67;28.13;;;28.60;99.90;;;;;;4893467;29;20107;-63
2022/05/21 11:02:12;;;;;;;42.83;27.90;;;28.60;99.90;;;;;;4890111;29;20059;-66
2022/05/21 11:04:42;;;;;;;43.05;28.90;;;28.60;99.90;;;;;;4894809;29;20119;-65
2022/05/21 11:07:30;;;;;;;41.53;28.40;;;28.60;99.90;;;;;;4894617;29;20478;-64
2022/05/21 11:10:04;;;;;;;36.50;24.08;;;28.60;99.90;;;;;;4918033;29;20044;-63
2022/05/21 11:12:44;;;;;;;33.17;22.45;;;28.50;99.90;;;;;;4929617;29;20050;-64
2022/05/21 11:15:24;;;;;;;37.65;24.20;;;28.50;99.90;;;;;;4932987;29;20028;-65
2022/05/21 11:17:57;;;;;;;36.13;22.92;;;28.50;99.90;;;;;;4930210;29;20424;-64
2022/05/21 11:20:30;;;;;;;35.22;23.58;;;28.50;99.90;;;;;;4930763;29;20035;-65
2022/05/21 11:23:12;;;;;;;40.70;25.67;;;28.50;99.90;;;;;;4929625;29;20040;-64
2022/05/21 11:25:56;;;;;;;48.33;28.55;;;28.50;99.90;;;;;;4930899;29;20055;-65
2022/05/21 11:28:32;;;;;;;45.92;28.02;;;28.60;99.90;;;;;;4928835;29;20032;-64
2022/05/21 11:31:08;;;;;;;45.38;29.40;;;28.50;99.90;;;;;;4927862;29;20024;-65
2022/05/21 11:39:20;;;;;;;40.88;27.65;;;28.40;99.90;;;;;;5029803;28;20033;-64
2022/05/21 11:42:06;;;;;;;46.63;29.27;;;28.50;99.90;;;;;;5028372;28;20025;-64
2022/05/21 11:47:33;;;;;;;40.58;28.95;;;28.50;99.90;;;;;;4949981;29;20118;-64
2022/05/21 11:50:02;;;;;;;40.42;29.77;;;28.40;99.90;;;;;;4949670;29;20438;-63
2022/05/21 11:52:28;;;;;;;48.20;30.60;;;28.40;99.90;;;;;;4947952;29;20101;-63
2022/05/21 11:54:57;;;;;;;46.10;31.65;;;28.40;99.90;;;;;;4948737;29;20544;-63
2022/05/21 11:57:55;;;;;;;47.22;29.50;;;28.40;99.90;;;;;;4951638;29;20043;-65
2022/05/21 12:00:24;;;;;;;54.10;29.83;;;28.40;99.90;;;;;;4950506;29;20058;-63
2022/05/21 12:03:00;;;;;;;50.60;30.77;;;28.50;99.90;;;;;;4940652;29;20118;-65
2022/05/21 12:05:38;;;;;;;45.67;29.40;;;28.40;99.90;;;;;;4951046;29;20119;-64
2022/05/21 12:08:17;;;;;;;39.70;27.95;;;28.30;99.90;;;;;;4951659;29;20038;-63
2022/05/21 12:11:04;;;;;;;50.03;31.85;;;28.40;99.90;;;;;;4950798;28;20033;-64
2022/05/21 12:14:01;;;;;;;50.35;30.08;;;28.30;99.90;;;;;;4954854;29;20027;-63
2022/05/21 12:16:29;;;;;;;54.67;34.97;;;28.30;99.90;;;;;;5033770;28;20114;-63
2022/05/21 12:18:59;;;;;;;51.90;34.35;;;28.30;99.90;;;;;;5029221;28;20203;-62
2022/05/21 12:24:06;;;;;;;51.13;33.67;;;28.30;99.90;;;;;;5033859;28;20045;-64
2022/05/21 12:27:01;;;;;;;41.72;27.00;;;28.30;99.90;;;;;;5033090;28;20022;-65
2022/05/21 12:29:32;;;;;;;42.17;26.13;;;28.30;99.90;;;;;;5029779;28;20083;-64
2022/05/21 12:32:01;;;;;;;42.33;27.38;;;28.20;99.90;;;;;;5025579;28;20108;-63
2022/05/21 12:35:07;;;;;;;42.05;27.83;;;28.20;99.90;;;;;;5026013;28;20045;-63
2022/05/21 12:37:42;;;;;;;44.55;28.20;;;28.20;99.90;;;;;;4936119;29;20139;-64
2022/05/21 12:40:19;;;;;;;47.10;33.17;;;28.20;99.90;;;;;;4937209;29;20031;-64
2022/05/21 12:42:51;;;;;;;42.00;25.88;;;28.20;99.90;;;;;;4936211;29;20051;-63
2022/05/21 12:45:49;;;;;;;37.00;24.25;;;28.20;99.90;;;;;;4935551;29;20380;-62
2022/05/21 12:48:31;;;;;;;35.53;22.98;;;28.10;99.90;;;;;;4935772;29;20036;-65
2022/05/21 12:51:01;;;;;;;31.60;22.20;;;28.10;99.90;;;;;;4936059;29;20035;-63
2022/05/21 12:53:30;;;;;;;34.53;23.10;;;28.00;99.90;;;;;;4936466;29;20488;-64
2022/05/21 12:56:20;;;;;;;32.80;22.88;;;27.90;99.90;;;;;;4937560;29;20047;-64
2022/05/21 12:59:00;;;;;;;32.33;21.92;;;27.90;99.90;;;;;;4917076;29;20040;-64
2022/05/21 13:01:29;;;;;;;39.40;24.02;;;28.00;99.90;;;;;;4921664;29;20040;-63
2022/05/21 13:03:56;;;;;;;40.55;29.33;;;28.00;99.90;;;;;;4919464;29;20090;-65
2022/05/21 13:06:27;;;;;;;50.17;31.15;;;27.90;99.90;;;;;;4915623;29;20433;-63
2022/05/21 13:08:54;;;;;;;47.85;28.75;;;27.90;99.90;;;;;;4917158;29;20127;-64
2022/05/21 13:11:25;;;;;;;49.25;30.23;;;27.80;99.90;;;;;;4932172;29;20511;-65
2022/05/21 13:14:01;;;;;;;46.92;30.02;;;27.80;99.90;;;;;;4948449;28;20047;-63
2022/05/21 13:16:29;;;;;;;40.47;25.83;;;27.80;99.90;;;;;;4974064;28;20491;-65
2022/05/21 13:19:14;;;;;;;42.88;28.25;;;27.90;99.90;;;;;;4968696;28;20039;-63
2022/05/21 13:21:51;;;;;;;42.00;26.27;;;27.90;99.90;;;;;;4971780;28;20038;-66
2022/05/21 13:24:41;;;;;;;42.03;25.70;;;28.00;99.90;;;;;;4968599;28;20031;-66